Time;durP1;ratioP1;P1;durP2;ratioP2;P2;SDS_P1;SDS_P2;PMS_P1;PMS_P2;Temp;Humidity;BMP_temperature;BMP_pressure;BME280_temperature;BME280_humidity;BME280_pressure;Samples;Min_cycle;Max_cycle;Signal;HPM_P1;HPM_P2
2023/10/10 00:01:02;;;;;;;0.10;0.10;;;;;;;2.49;75.89;98760.81;4964225;28;20511;-67
2023/10/10 00:03:31;;;;;;;0.10;0.10;;;;;;;2.48;76.26;98760.00;4963350;28;20158;-67
2023/10/10 00:05:58;;;;;;;0.10;0.10;;;;;;;2.46;76.13;98754.03;4963513;28;20053;-67
2023/10/10 00:08:30;;;;;;;0.10;0.10;;;;;;;2.38;76.49;98739.09;4962394;28;20047;-66
2023/10/10 00:10:56;;;;;;;0.10;0.10;;;;;;;2.50;76.61;98762.47;4965119;28;20518;-67
2023/10/10 00:13:23;;;;;;;0.10;0.10;;;;;;;2.53;76.80;98754.66;4947414;28;20061;-66
2023/10/10 00:15:51;;;;;;;0.10;0.10;;;;;;;2.50;75.97;98757.88;4961158;28;20074;-66
2023/10/10 00:18:18;;;;;;;0.10;0.10;;;;;;;2.52;76.82;98761.13;4946179;28;20553;-66
2023/10/10 00:20:47;;;;;;;0.10;0.10;;;;;;;2.57;77.36;98762.25;4947209;28;20050;-66
2023/10/10 00:23:16;;;;;;;0.10;0.10;;;;;;;2.56;76.88;98758.75;4941179;28;20507;-66
2023/10/10 00:25:44;;;;;;;0.00;0.00;;;;;;;2.47;76.94;98744.03;4960584;28;20908;-66
2023/10/10 00:28:21;;;;;;;0.10;0.10;;;;;;;2.51;77.05;98756.00;4957630;28;20043;-67
2023/10/10 00:30:47;;;;;;;0.00;0.00;;;;;;;2.52;77.51;98763.84;4949545;28;20422;-68
2023/10/10 00:33:16;;;;;;;0.10;0.10;;;;;;;2.62;77.86;98767.75;4964321;28;20051;-67
2023/10/10 00:35:42;;;;;;;0.10;0.10;;;;;;;2.65;77.44;98769.97;4958905;28;20566;-67
2023/10/10 00:38:16;;;;;;;0.10;0.10;;;;;;;2.60;76.29;98778.78;4945105;28;20450;-68
2023/10/10 00:40:46;;;;;;;0.10;0.10;;;;;;;2.50;76.40;98765.97;4945456;28;20051;-67
2023/10/10 00:43:15;;;;;;;0.10;0.10;;;;;;;2.41;76.29;98772.81;4955811;28;20153;-67
2023/10/10 00:45:43;;;;;;;0.10;0.10;;;;;;;2.39;76.92;98775.78;4964518;28;20312;-67
2023/10/10 00:48:10;;;;;;;0.10;0.10;;;;;;;2.41;77.19;98779.06;4960887;28;20356;-67
2023/10/10 00:50:43;;;;;;;0.10;0.10;;;;;;;2.47;77.79;98779.97;4963348;28;20510;-66
2023/10/10 00:53:11;;;;;;;0.10;0.10;;;;;;;2.55;77.22;98781.44;4961760;28;20141;-66
2023/10/10 00:55:39;;;;;;;0.00;0.00;;;;;;;2.59;77.32;98795.25;4961651;28;20058;-67
2023/10/10 00:58:07;;;;;;;0.10;0.10;;;;;;;2.64;77.59;98782.63;4959866;28;20141;-67
2023/10/10 01:00:35;;;;;;;;;;;;;;;2.67;77.80;98790.25;4961401;28;20051;-67
2023/10/10 01:03:14;;;;;;;0.00;0.00;;;;;;;2.68;77.11;98782.94;4938119;28;19933;-67
2023/10/10 01:05:42;;;;;;;0.10;0.10;;;;;;;2.73;77.42;98776.81;4949948;28;20050;-66
2023/10/10 01:08:09;;;;;;;0.00;0.00;;;;;;;2.65;76.83;98781.59;4947368;28;20647;-66
2023/10/10 01:10:43;;;;;;;0.00;0.00;;;;;;;2.57;76.11;98792.78;4963945;28;20137;-67
2023/10/10 01:13:11;;;;;;;0.10;0.10;;;;;;;2.50;77.14;98786.75;4931794;28;20137;-66
2023/10/10 01:15:37;;;;;;;0.00;0.00;;;;;;;2.56;77.85;98788.47;4962406;28;20066;-67
2023/10/10 01:18:13;;;;;;;0.10;0.10;;;;;;;2.57;77.32;98792.78;4966332;28;20395;-67
2023/10/10 01:20:45;;;;;;;0.10;0.10;;;;;;;2.48;76.91;98797.78;4946280;28;20038;-67
2023/10/10 01:23:18;;;;;;;0.10;0.10;;;;;;;2.46;77.33;98799.09;4964294;28;20058;-67
2023/10/10 01:25:47;;;;;;;0.10;0.10;;;;;;;2.44;77.54;98798.50;4949561;28;20046;-67
2023/10/10 01:30:59;;;;;;;0.10;0.10;;;;;;;2.49;76.90;98802.13;4964684;28;20426;-67
2023/10/10 01:33:36;;;;;;;0.10;0.10;;;;;;;2.53;77.07;98805.94;4962224;28;20514;-66
2023/10/10 01:36:22;;;;;;;0.10;0.10;;;;;;;2.47;76.66;98806.09;4938802;28;20051;-67
2023/10/10 01:39:28;;;;;;;0.10;0.10;;;;;;;2.35;77.21;98801.63;4966311;28;20058;-66
2023/10/10 01:41:54;;;;;;;0.10;0.10;;;;;;;2.40;77.82;98799.00;4924446;29;20510;-67
2023/10/10 01:44:23;;;;;;;0.10;0.10;;;;;;;2.50;77.76;98802.94;4943018;28;20538;-67
2023/10/10 01:46:53;;;;;;;0.10;0.10;;;;;;;2.57;78.24;98800.06;4965882;28;20051;-67
2023/10/10 01:49:29;;;;;;;0.10;0.10;;;;;;;2.61;77.58;98806.63;4959049;28;20138;-66
2023/10/10 01:51:58;;;;;;;0.10;0.10;;;;;;;2.63;77.04;98804.47;4947402;28;20053;-66
2023/10/10 01:54:34;;;;;;;0.00;0.00;;;;;;;2.66;76.76;98814.78;4963215;28;20573;-66
2023/10/10 01:57:03;;;;;;;0.10;0.10;;;;;;;2.67;77.18;98809.16;4962908;28;20143;-65
2023/10/10 01:59:35;;;;;;;0.10;0.10;;;;;;;2.72;76.69;98815.69;4965094;28;20043;-65
2023/10/10 02:02:07;;;;;;;0.10;0.10;;;;;;;2.69;76.05;98807.00;4936746;28;20050;-65
2023/10/10 02:04:36;;;;;;;0.10;0.10;;;;;;;2.68;76.65;98810.78;4962600;28;20124;-66
2023/10/10 02:07:14;;;;;;;0.10;0.10;;;;;;;2.65;76.21;98813.16;4963544;28;20160;-66
2023/10/10 02:09:40;;;;;;;0.10;0.10;;;;;;;2.58;76.23;98816.00;4964504;28;20105;-66
2023/10/10 02:12:15;;;;;;;0.00;0.00;;;;;;;2.47;75.57;98817.75;4963202;28;20058;-66
2023/10/10 02:14:43;;;;;;;0.10;0.10;;;;;;;2.39;75.51;98816.25;4940819;28;20538;-65
2023/10/10 02:17:20;;;;;;;;;;;;;;;2.41;75.71;98824.09;4963093;28;20054;-66
2023/10/10 02:19:53;;;;;;;0.10;0.10;;;;;;;2.46;75.94;98828.75;4956288;28;20464;-66
2023/10/10 02:22:47;;;;;;;0.10;0.10;;;;;;;2.45;75.06;98827.13;4949986;28;20042;-66
2023/10/10 02:27:56;;;;;;;0.10;0.10;;;;;;;2.33;75.22;98830.72;4964346;28;20055;-66
2023/10/10 02:30:40;;;;;;;0.10;0.10;;;;;;;2.39;75.39;98839.72;4963868;28;20042;-66
2023/10/10 02:33:30;;;;;;;0.10;0.10;;;;;;;2.37;75.34;98823.78;4961518;28;20046;-66
2023/10/10 02:35:56;;;;;;;0.00;0.00;;;;;;;2.47;75.70;98819.59;4960873;28;20557;-66
2023/10/10 02:38:31;;;;;;;0.10;0.10;;;;;;;2.51;75.58;98834.25;4964422;28;20134;-66
2023/10/10 02:41:15;;;;;;;0.10;0.10;;;;;;;2.53;76.16;98827.53;4948635;28;20105;-66
2023/10/10 02:46:37;;;;;;;0.10;0.10;;;;;;;2.58;76.08;98834.09;4962440;28;20051;-67
2023/10/10 02:51:55;;;;;;;0.10;0.10;;;;;;;2.33;78.14;98829.91;4963967;28;20075;-67
2023/10/10 02:56:56;;;;;;;0.10;0.10;;;;;;;2.26;79.38;98832.75;4964994;28;20153;-67
2023/10/10 02:59:30;;;;;;;0.10;0.10;;;;;;;2.26;79.88;98841.69;4961888;28;20055;-66
2023/10/10 03:01:59;;;;;;;0.10;0.10;;;;;;;2.23;79.88;98836.75;4948422;28;20078;-67
2023/10/10 03:04:52;;;;;;;0.00;0.00;;;;;;;2.20;80.17;98833.75;4966484;28;20066;-69
2023/10/10 03:07:28;;;;;;;0.10;0.10;;;;;;;2.22;80.36;98842.41;4957646;28;20441;-68
2023/10/10 03:12:41;;;;;;;0.00;0.00;;;;;;;2.19;80.41;98838.31;4963222;28;20510;-67
2023/10/10 03:15:15;;;;;;;0.10;0.10;;;;;;;2.16;79.87;98835.28;4961887;28;20055;-66
2023/10/10 03:18:15;;;;;;;0.08;0.08;;;;;;;2.13;80.07;98842.78;4946099;28;20106;-66
2023/10/10 03:21:07;;;;;;;0.10;0.10;;;;;;;2.00;80.24;98850.38;4966008;28;20051;-66
2023/10/10 03:29:21;;;;;;;0.10;0.10;;;;;;;2.05;80.46;98866.66;4907191;29;20063;-66
2023/10/10 03:31:47;;;;;;;0.10;0.10;;;;;;;1.98;81.01;98866.78;4905602;29;20582;-66
2023/10/10 03:36:44;;;;;;;0.10;0.10;;;;;;;2.06;81.12;98876.38;4921624;29;20062;-66
2023/10/10 05:23:54;;;;;;;0.10;0.10;;;;;;;2.65;76.45;98986.75;4963778;28;20039;-66
2023/10/10 05:26:20;;;;;;;0.10;0.10;;;;;;;2.86;75.68;98986.25;4965628;28;20267;-66
2023/10/10 05:28:47;;;;;;;0.10;0.10;;;;;;;2.90;75.41;98985.53;4953306;28;20058;-66
2023/10/10 05:31:18;;;;;;;0.10;0.10;;;;;;;3.03;75.59;98989.78;4957220;28;20062;-67
2023/10/10 05:33:47;;;;;;;0.10;0.10;;;;;;;2.90;75.34;98990.94;4963034;28;20093;-66
2023/10/10 05:36:18;;;;;;;0.10;0.10;;;;;;;2.68;76.62;98991.66;4958519;28;20120;-66
2023/10/10 05:38:46;;;;;;;0.10;0.10;;;;;;;2.73;77.54;99001.69;4954069;28;20046;-66
2023/10/10 05:41:12;;;;;;;0.10;0.10;;;;;;;2.79;77.44;99000.75;4936898;28;20066;-66
2023/10/10 05:43:39;;;;;;;0.10;0.10;;;;;;;2.79;77.49;99008.00;4953366;28;20038;-66
2023/10/10 05:46:06;;;;;;;0.10;0.10;;;;;;;2.64;77.73;98997.75;4954515;28;20124;-66
2023/10/10 05:48:35;;;;;;;0.10;0.10;;;;;;;2.63;77.94;99013.13;4957503;28;20047;-66
2023/10/10 05:51:08;;;;;;;0.10;0.10;;;;;;;2.53;78.92;99021.06;4955224;28;20077;-68
2023/10/10 05:53:41;;;;;;;0.10;0.10;;;;;;;2.61;79.51;99015.25;4936337;28;20074;-67
2023/10/10 05:56:14;;;;;;;0.10;0.10;;;;;;;2.61;78.98;99012.56;4964015;28;20129;-66
2023/10/10 05:58:42;;;;;;;0.10;0.10;;;;;;;2.63;79.46;99020.41;4961912;28;20070;-68
2023/10/10 06:01:12;;;;;;;0.10;0.10;;;;;;;2.70;79.86;99023.78;4946677;28;20458;-66
2023/10/10 06:03:40;;;;;;;0.10;0.10;;;;;;;2.69;79.48;99028.38;4958036;28;20047;-66
2023/10/10 06:06:06;;;;;;;;;;;;;;;2.70;79.59;99023.78;4961364;28;20054;-66
2023/10/10 06:08:32;;;;;;;0.05;0.05;;;;;;;2.77;79.60;99024.47;4953442;28;19926;-66
2023/10/10 06:11:02;;;;;;;0.10;0.10;;;;;;;2.80;78.80;99025.84;4943303;28;20505;-66
2023/10/10 06:13:29;;;;;;;0.10;0.10;;;;;;;2.79;78.49;99035.00;4942924;28;20057;-66
2023/10/10 06:16:05;;;;;;;0.10;0.10;;;;;;;2.75;77.45;99040.09;4961510;28;20055;-66
2023/10/10 06:18:32;;;;;;;0.10;0.10;;;;;;;2.67;77.27;99037.75;4965873;28;20050;-67
2023/10/10 06:21:02;;;;;;;0.10;0.10;;;;;;;2.74;76.92;99038.44;4948039;28;20043;-66
2023/10/10 06:23:33;;;;;;;0.10;0.10;;;;;;;2.74;76.33;99041.16;4947943;28;20122;-66
2023/10/10 06:26:02;;;;;;;0.10;0.10;;;;;;;2.76;76.44;99038.19;4933354;28;20053;-66
2023/10/10 06:28:29;;;;;;;0.10;0.10;;;;;;;2.71;76.18;99032.72;4963693;28;20082;-67
2023/10/10 06:30:59;;;;;;;0.10;0.10;;;;;;;2.77;76.28;99039.84;4963622;28;20054;-66
2023/10/10 06:33:28;;;;;;;0.10;0.10;;;;;;;2.78;76.40;99047.69;4949050;28;20294;-66
2023/10/10 06:36:32;;;;;;;0.10;0.10;;;;;;;2.71;76.52;99044.31;4964052;28;20169;-66
2023/10/10 06:41:37;;;;;;;0.10;0.10;;;;;;;2.56;75.90;99055.66;4963848;28;20047;-67
2023/10/10 06:44:04;;;;;;;0.10;0.10;;;;;;;2.46;76.05;99055.44;4965162;28;20134;-66
2023/10/10 06:46:37;;;;;;;0.10;0.10;;;;;;;2.41;76.60;99056.16;4948566;28;20090;-66
2023/10/10 06:49:06;;;;;;;0.10;0.10;;;;;;;2.51;76.75;99064.47;4965477;28;20058;-66
2023/10/10 06:51:39;;;;;;;0.10;0.10;;;;;;;2.61;76.22;99071.94;4965584;28;20461;-66
2023/10/10 06:54:08;;;;;;;0.10;0.10;;;;;;;2.63;76.04;99071.72;4946820;28;20109;-66
2023/10/10 06:56:45;;;;;;;0.10;0.10;;;;;;;2.69;75.76;99082.38;4965760;28;20094;-66
2023/10/10 06:59:20;;;;;;;0.10;0.10;;;;;;;2.70;75.69;99077.78;4963121;28;20422;-66
2023/10/10 07:01:47;;;;;;;0.10;0.10;;;;;;;2.75;75.64;99077.06;4948339;28;20181;-66
2023/10/10 07:04:14;;;;;;;0.10;0.10;;;;;;;2.81;75.38;99079.63;4963266;28;20150;-66
2023/10/10 07:06:51;;;;;;;0.10;0.10;;;;;;;2.85;74.79;99082.66;4961313;28;20510;-66
2023/10/10 07:09:27;;;;;;;0.10;0.10;;;;;;;2.59;74.50;99046.25;4962052;28;20047;-66
2023/10/10 07:11:56;;;;;;;0.10;0.10;;;;;;;2.82;73.76;99092.06;4943283;28;20047;-66
2023/10/10 07:14:25;;;;;;;0.10;0.10;;;;;;;2.78;74.11;99087.38;4967205;28;20050;-66
2023/10/10 07:16:56;;;;;;;0.10;0.10;;;;;;;2.79;74.17;99089.84;4962840;28;20047;-66
2023/10/10 07:19:30;;;;;;;0.10;0.10;;;;;;;2.75;74.15;99087.84;4963153;28;20043;-66
2023/10/10 07:21:56;;;;;;;0.10;0.10;;;;;;;2.78;74.18;99084.66;4963925;28;20054;-66
2023/10/10 07:24:28;;;;;;;0.10;0.10;;;;;;;2.90;74.12;99087.34;4939630;28;20043;-66
2023/10/10 07:26:59;;;;;;;0.10;0.10;;;;;;;2.93;74.16;99095.75;4964395;28;20522;-66
2023/10/10 07:29:30;;;;;;;0.10;0.10;;;;;;;3.04;74.03;99098.66;4963657;28;20046;-67
2023/10/10 07:32:16;;;;;;;0.10;0.10;;;;;;;3.13;74.08;99099.91;4932923;28;20050;-66
2023/10/10 07:34:49;;;;;;;0.10;0.10;;;;;;;3.25;73.98;99100.66;4964985;28;20439;-66
2023/10/10 07:37:16;;;;;;;0.10;0.10;;;;;;;3.32;74.00;99102.41;4964651;28;20101;-66
2023/10/10 07:40:08;;;;;;;0.30;0.10;;;;;;;3.33;73.76;99102.13;4961387;28;20130;-67
2023/10/10 07:42:37;;;;;;;0.10;0.10;;;;;;;3.32;74.35;99114.00;4963557;28;20298;-67
2023/10/10 07:45:13;;;;;;;0.10;0.10;;;;;;;3.32;74.69;99119.41;4967022;28;20375;-66
2023/10/10 07:50:34;;;;;;;0.10;0.10;;;;;;;3.36;75.17;99126.00;4963521;28;20536;-66
2023/10/10 07:53:04;;;;;;;0.10;0.10;;;;;;;3.41;74.82;99127.94;4961428;28;20050;-66
2023/10/10 07:55:50;;;;;;;0.10;0.10;;;;;;;3.51;74.67;99125.41;4943105;28;20294;-67
2023/10/10 07:58:20;;;;;;;0.10;0.10;;;;;;;3.48;74.34;99125.09;4945269;28;20185;-67
2023/10/10 08:00:46;;;;;;;0.10;0.10;;;;;;;3.51;74.81;99130.00;4964380;28;20054;-66
2023/10/10 08:03:19;;;;;;;0.10;0.10;;;;;;;3.61;74.61;99126.66;4962064;28;20054;-67
2023/10/10 08:05:47;;;;;;;0.10;0.10;;;;;;;3.65;74.24;99134.03;4945284;28;20054;-66
2023/10/10 08:08:15;;;;;;;0.40;0.10;;;;;;;3.60;74.43;99131.25;4963164;28;20046;-66
2023/10/10 08:10:43;;;;;;;0.00;0.00;;;;;;;3.57;74.37;99133.59;4963527;28;20134;-66
2023/10/10 08:13:14;;;;;;;0.10;0.10;;;;;;;3.54;74.24;99132.22;4964613;28;20046;-66
2023/10/10 08:15:50;;;;;;;0.10;0.10;;;;;;;3.53;74.13;99130.59;4962843;28;20627;-66
2023/10/10 08:18:41;;;;;;;0.10;0.10;;;;;;;3.59;73.39;99139.59;4945978;28;20047;-67
2023/10/10 08:23:31;;;;;;;0.10;0.10;;;;;;;3.30;72.78;99145.88;4968256;28;20051;-66
2023/10/10 08:25:57;;;;;;;0.10;0.10;;;;;;;3.26;72.81;99152.81;4967758;28;20055;-66
2023/10/10 08:28:24;;;;;;;0.10;0.10;;;;;;;3.26;73.00;99155.53;4964174;28;20059;-66
2023/10/10 08:30:52;;;;;;;0.10;0.10;;;;;;;3.35;73.09;99151.34;4951731;28;20058;-66
2023/10/10 08:33:18;;;;;;;0.10;0.10;;;;;;;3.35;73.04;99145.13;4965164;28;20061;-67
2023/10/10 08:35:46;;;;;;;0.10;0.10;;;;;;;3.35;72.70;99151.34;4966022;28;20070;-66
2023/10/10 08:38:19;;;;;;;0.10;0.10;;;;;;;3.32;72.33;99159.16;4966082;28;20594;-66
2023/10/10 08:40:57;;;;;;;0.10;0.10;;;;;;;3.42;72.19;99158.50;4967897;28;20062;-66
2023/10/10 08:43:28;;;;;;;0.10;0.10;;;;;;;3.55;71.98;99152.78;4969371;28;20050;-67
2023/10/10 08:45:58;;;;;;;0.10;0.10;;;;;;;3.72;71.29;99165.50;4950792;28;20051;-67
2023/10/10 08:48:29;;;;;;;0.10;0.10;;;;;;;3.60;70.92;99169.09;4968421;28;20079;-68
2023/10/10 08:51:03;;;;;;;0.10;0.10;;;;;;;3.53;70.91;99174.66;4951634;28;20050;-66
2023/10/10 08:53:35;;;;;;;0.10;0.10;;;;;;;3.63;71.07;99165.09;4962842;28;20055;-67
2023/10/10 08:56:02;;;;;;;0.10;0.10;;;;;;;3.94;69.98;99171.81;4951931;28;20053;-66
2023/10/10 08:58:34;;;;;;;0.10;0.10;;;;;;;4.06;68.64;99170.91;4946837;28;20109;-66
2023/10/10 09:01:05;;;;;;;0.10;0.10;;;;;;;3.99;68.32;99167.56;4952614;28;20035;-66
2023/10/10 09:03:34;;;;;;;1.45;0.10;;;;;;;3.81;68.38;99177.53;4964257;28;20097;-67
2023/10/10 09:06:14;;;;;;;0.10;0.10;;;;;;;3.74;68.24;99188.50;4949469;28;20426;-66
2023/10/10 09:08:43;;;;;;;0.10;0.10;;;;;;;3.75;68.79;99179.38;4967526;28;20086;-66
2023/10/10 09:11:11;;;;;;;0.10;0.10;;;;;;;3.85;68.88;99191.41;4968870;28;20527;-67
2023/10/10 09:13:47;;;;;;;;;;;;;;;4.05;68.69;99193.63;4964029;28;20399;-66
2023/10/10 09:16:14;;;;;;;0.10;0.10;;;;;;;4.10;68.24;99191.81;4966025;28;19936;-66
2023/10/10 09:18:42;;;;;;;0.10;0.10;;;;;;;4.11;68.32;99198.03;4965464;28;20564;-66
2023/10/10 09:21:18;;;;;;;0.10;0.10;;;;;;;4.02;68.51;99202.22;4967998;28;20105;-66
2023/10/10 09:24:05;;;;;;;0.10;0.10;;;;;;;3.89;68.63;99196.06;4964524;28;20053;-66
2023/10/10 09:26:36;;;;;;;0.10;0.10;;;;;;;3.86;69.01;99203.84;4965997;28;20408;-66
2023/10/10 09:29:15;;;;;;;0.10;0.10;;;;;;;3.88;68.66;99197.16;4965028;28;20071;-66
2023/10/10 09:31:45;;;;;;;0.10;0.10;;;;;;;3.77;68.91;99196.16;4947905;28;20540;-66
2023/10/10 09:34:13;;;;;;;0.10;0.10;;;;;;;3.60;69.22;99179.09;4967443;28;20052;-66
2023/10/10 09:36:39;;;;;;;0.10;0.10;;;;;;;3.67;68.98;99199.50;4968795;28;20596;-66
2023/10/10 09:39:09;;;;;;;0.10;0.10;;;;;;;3.67;69.14;99198.69;4950132;28;20070;-66
2023/10/10 09:42:00;;;;;;;0.10;0.10;;;;;;;3.72;69.35;99204.16;4966734;28;20409;-66
2023/10/10 09:50:35;;;;;;;0.10;0.10;;;;;;;3.78;68.84;99213.19;4966043;28;20090;-66
2023/10/10 09:57:42;;;;;;;0.10;0.10;;;;;;;3.76;69.46;99207.22;4948751;28;20166;-67
2023/10/10 10:00:13;;;;;;;0.10;0.10;;;;;;;3.83;69.05;99213.31;4965497;28;20062;-67
2023/10/10 10:02:48;;;;;;;0.10;0.10;;;;;;;3.76;68.42;99202.63;4948092;28;20042;-66
2023/10/10 10:05:18;;;;;;;0.10;0.10;;;;;;;3.67;68.46;99221.16;4963915;28;20051;-66
2023/10/10 10:07:59;;;;;;;0.10;0.10;;;;;;;3.70;68.60;99222.53;4964563;28;20066;-66
2023/10/10 10:10:48;;;;;;;0.10;0.10;;;;;;;3.85;68.13;99221.16;4948956;28;20142;-66
2023/10/10 10:13:28;;;;;;;0.10;0.10;;;;;;;3.75;66.76;99222.63;4965408;28;20067;-67
2023/10/10 10:16:15;;;;;;;0.10;0.10;;;;;;;3.80;67.21;99220.00;4965084;28;20070;-66
2023/10/10 10:18:46;;;;;;;0.10;0.10;;;;;;;4.17;66.46;99228.69;4967001;28;20051;-66
2023/10/10 10:21:31;;;;;;;0.10;0.10;;;;;;;4.54;64.72;99225.50;4967755;28;20055;-66
2023/10/10 10:24:15;;;;;;;0.10;0.10;;;;;;;4.46;63.50;99232.16;4950878;28;20813;-66
2023/10/10 10:26:44;;;;;;;0.10;0.10;;;;;;;4.21;63.75;99232.53;4967450;28;20051;-67
2023/10/10 10:29:27;;;;;;;0.10;0.10;;;;;;;3.86;64.09;99198.44;4965678;28;20129;-66
2023/10/10 10:31:59;;;;;;;0.10;0.10;;;;;;;4.01;64.09;99236.56;4967246;28;20054;-66
2023/10/10 10:37:06;;;;;;;0.10;0.10;;;;;;;4.04;64.33;99243.38;4965914;28;20055;-67
2023/10/10 10:39:35;;;;;;;0.10;0.10;;;;;;;4.04;64.29;99248.78;4964662;28;20058;-66
2023/10/10 10:42:05;;;;;;;0.10;0.10;;;;;;;4.02;64.08;99226.59;4963999;28;20077;-66
2023/10/10 10:44:47;;;;;;;0.10;0.10;;;;;;;4.09;63.91;99246.16;4965518;28;20088;-66
2023/10/10 10:47:49;;;;;;;0.10;0.10;;;;;;;4.18;63.96;99244.72;4947718;28;20062;-66
2023/10/10 10:50:46;;;;;;;0.10;0.10;;;;;;;4.31;63.58;99242.75;4966060;28;20051;-66
2023/10/10 10:53:33;;;;;;;0.10;0.10;;;;;;;4.31;63.35;99246.25;4965218;28;20073;-66
2023/10/10 11:01:23;;;;;;;0.10;0.10;;;;;;;4.87;62.81;99252.72;4950000;28;20041;-66
2023/10/10 11:03:54;;;;;;;0.20;0.20;;;;;;;5.23;62.11;99245.06;4962877;28;20086;-66
2023/10/10 11:06:26;;;;;;;0.10;0.10;;;;;;;6.21;59.28;99248.78;4946324;28;20279;-66
2023/10/10 11:08:52;;;;;;;0.10;0.10;;;;;;;6.25;58.85;99259.94;4946642;28;20548;-67
2023/10/10 11:16:56;;;;;;;0.10;0.10;;;;;;;5.80;59.30;99262.75;4964812;28;20206;-66
2023/10/10 11:19:38;;;;;;;0.10;0.10;;;;;;;5.75;59.73;99265.41;4962543;28;20047;-67
2023/10/10 11:22:12;;;;;;;0.20;0.20;;;;;;;5.93;59.43;99261.53;4947887;28;20042;-67
2023/10/10 11:24:39;;;;;;;0.10;0.10;;;;;;;6.03;57.91;99276.31;4945155;28;20138;-67
2023/10/10 11:29:34;;;;;;;0.10;0.10;;;;;;;5.22;58.39;99267.81;4961589;28;20105;-66
2023/10/10 11:32:08;;;;;;;0.10;0.10;;;;;;;5.16;59.50;99283.22;4959037;28;20062;-66
2023/10/10 11:34:44;;;;;;;0.10;0.10;;;;;;;5.23;59.59;99278.41;4960410;28;20524;-66
2023/10/10 11:37:14;;;;;;;0.10;0.10;;;;;;;5.21;59.42;99285.13;4963598;28;20164;-67
2023/10/10 11:39:47;;;;;;;0.10;0.10;;;;;;;5.01;59.93;99267.56;4965260;28;20063;-67
2023/10/10 11:42:24;;;;;;;0.10;0.10;;;;;;;4.96;59.97;99291.88;4963334;28;20569;-66
2023/10/10 11:44:53;;;;;;;0.10;0.10;;;;;;;4.75;60.23;99309.72;4962479;28;20051;-67
2023/10/10 11:47:24;;;;;;;0.10;0.10;;;;;;;4.54;61.83;99325.66;4963649;28;20062;-66
2023/10/10 11:50:00;;;;;;;0.10;0.10;;;;;;;4.28;64.54;99311.72;4947119;28;20051;-67
2023/10/10 11:52:28;;;;;;;0.10;0.10;;;;;;;4.15;66.74;99326.38;4946195;28;20085;-67
2023/10/10 11:54:55;;;;;;;0.10;0.10;;;;;;;4.17;67.65;99331.53;4942069;28;20055;-66
2023/10/10 11:57:22;;;;;;;0.10;0.10;;;;;;;4.29;68.10;99326.03;4945752;28;20082;-67
2023/10/10 11:59:48;;;;;;;0.10;0.10;;;;;;;4.41;68.34;99326.78;4962735;28;20042;-67
2023/10/10 12:02:17;;;;;;;0.10;0.10;;;;;;;4.51;68.00;99328.84;4946290;28;20058;-66
2023/10/10 12:04:44;;;;;;;0.10;0.10;;;;;;;4.49;67.99;99337.22;4965601;28;20051;-67
2023/10/10 12:07:13;;;;;;;;;;;;;;;4.40;67.53;99338.69;4965310;28;20426;-67
2023/10/10 12:09:45;;;;;;;0.13;0.10;;;;;;;4.28;67.27;99332.53;4962314;28;19973;-66
2023/10/10 12:12:11;;;;;;;0.10;0.10;;;;;;;4.10;67.61;99342.50;4945752;28;20541;-67
2023/10/10 12:14:38;;;;;;;0.10;0.10;;;;;;;3.87;68.39;99338.88;4962513;28;20046;-66
2023/10/10 12:17:07;;;;;;;0.10;0.10;;;;;;;3.74;68.97;99339.94;4946527;28;20047;-66
2023/10/10 12:19:37;;;;;;;0.10;0.10;;;;;;;3.71;69.37;99345.84;4962026;28;20058;-66
2023/10/10 12:22:07;;;;;;;0.10;0.10;;;;;;;3.75;69.20;99347.03;4959924;28;20153;-66
2023/10/10 12:24:35;;;;;;;0.10;0.10;;;;;;;3.65;68.87;99320.59;4937497;28;20311;-66
2023/10/10 12:27:07;;;;;;;0.10;0.10;;;;;;;3.96;67.57;99345.50;4944717;28;20068;-66
2023/10/10 12:29:39;;;;;;;0.10;0.10;;;;;;;3.95;66.46;99349.28;4963117;28;20046;-66
2023/10/10 12:32:15;;;;;;;0.10;0.10;;;;;;;3.93;66.22;99359.53;4964570;28;20126;-68
2023/10/10 12:34:42;;;;;;;0.10;0.10;;;;;;;3.83;66.46;99359.34;4938139;28;20050;-66
2023/10/10 12:37:08;;;;;;;0.10;0.10;;;;;;;3.76;66.89;99358.66;4946163;28;20454;-66
2023/10/10 12:39:37;;;;;;;0.10;0.10;;;;;;;3.50;67.36;99344.63;4961896;28;20430;-66
2023/10/10 12:42:07;;;;;;;0.10;0.10;;;;;;;3.61;67.36;99370.00;4967282;28;20066;-66
2023/10/10 12:44:34;;;;;;;0.10;0.10;;;;;;;3.59;67.45;99369.38;4932349;28;20053;-66
2023/10/10 12:47:06;;;;;;;0.10;0.10;;;;;;;3.67;67.22;99377.16;4963908;28;20460;-66
2023/10/10 12:49:36;;;;;;;0.10;0.10;;;;;;;3.77;66.51;99388.16;4962175;28;20054;-66
2023/10/10 12:52:11;;;;;;;0.10;0.10;;;;;;;3.81;66.46;99388.50;4963277;28;20046;-67
2023/10/10 12:54:37;;;;;;;0.10;0.10;;;;;;;3.87;66.22;99389.41;4962517;28;20058;-66
2023/10/10 12:57:06;;;;;;;0.10;0.10;;;;;;;3.94;66.30;99392.81;4961539;28;20384;-66
2023/10/10 12:59:38;;;;;;;0.10;0.10;;;;;;;3.96;66.18;99377.16;4947435;28;20053;-66
2023/10/10 13:02:08;;;;;;;0.10;0.10;;;;;;;3.95;66.39;99383.63;4950290;28;20054;-67
2023/10/10 13:04:37;;;;;;;0.10;0.10;;;;;;;3.83;66.52;99408.84;4946653;28;20073;-68
2023/10/10 13:07:03;;;;;;;0.10;0.10;;;;;;;3.55;67.33;99391.50;4948490;28;20054;-66
2023/10/10 13:09:30;;;;;;;0.10;0.10;;;;;;;3.51;67.37;99403.84;4948972;28;20066;-66
2023/10/10 13:11:56;;;;;;;0.10;0.10;;;;;;;3.56;67.38;99408.56;4945391;29;20423;-66
2023/10/10 13:14:25;;;;;;;0.20;0.20;;;;;;;3.82;66.71;99409.06;4947946;28;20395;-66
2023/10/10 13:19:23;;;;;;;0.10;0.10;;;;;;;4.39;64.31;99408.28;4943865;29;20050;-67
2023/10/10 13:21:52;;;;;;;0.10;0.10;;;;;;;4.21;64.38;99401.19;4946199;29;20039;-67
2023/10/10 13:24:20;;;;;;;0.10;0.10;;;;;;;3.80;65.01;99403.06;4964470;28;20138;-67
2023/10/10 13:26:49;;;;;;;0.10;0.10;;;;;;;3.65;65.83;99409.00;4949138;28;20051;-66
2023/10/10 13:29:44;;;;;;;0.10;0.10;;;;;;;3.62;66.18;99421.13;4948302;29;20054;-66
2023/10/10 13:32:12;;;;;;;0.10;0.10;;;;;;;3.54;66.39;99419.59;4964095;28;20055;-66
2023/10/10 13:34:39;;;;;;;0.10;0.10;;;;;;;3.60;66.85;99419.72;4948238;28;20062;-66
2023/10/10 13:37:07;;;;;;;0.10;0.10;;;;;;;3.50;66.22;99431.13;4948525;29;20161;-67
2023/10/10 13:39:43;;;;;;;0.10;0.10;;;;;;;3.47;66.56;99424.31;4946479;29;20730;-67
2023/10/10 13:42:14;;;;;;;0.10;0.10;;;;;;;3.48;67.07;99423.25;4949723;28;20071;-66
2023/10/10 13:44:41;;;;;;;0.10;0.10;;;;;;;3.59;67.41;99434.28;4945757;28;20047;-66
2023/10/10 13:47:08;;;;;;;0.10;0.10;;;;;;;3.60;67.04;99427.84;4946407;28;20511;-66
2023/10/10 13:49:44;;;;;;;0.10;0.10;;;;;;;3.68;65.95;99443.69;4944812;29;20074;-66
2023/10/10 13:52:11;;;;;;;0.10;0.10;;;;;;;3.74;66.22;99444.63;4947894;28;20070;-66
2023/10/10 13:54:38;;;;;;;0.10;0.10;;;;;;;3.74;66.08;99450.81;4946769;28;20075;-66
2023/10/10 13:57:06;;;;;;;0.10;0.10;;;;;;;3.78;65.98;99451.19;4963246;28;20075;-66
2023/10/10 13:59:33;;;;;;;0.10;0.10;;;;;;;3.75;65.68;99448.97;4949668;28;20170;-66
2023/10/10 14:02:03;;;;;;;0.10;0.10;;;;;;;3.64;65.82;99462.25;4947709;28;20133;-66
2023/10/10 14:04:45;;;;;;;0.10;0.10;;;;;;;3.59;66.03;99461.31;4945949;28;20059;-68
2023/10/10 14:07:15;;;;;;;0.10;0.10;;;;;;;3.57;65.92;99464.28;4945888;28;20085;-66
2023/10/10 14:09:44;;;;;;;0.10;0.10;;;;;;;3.55;66.16;99469.91;4945013;28;20067;-66
2023/10/10 14:12:19;;;;;;;0.10;0.10;;;;;;;3.54;66.26;99476.38;4945247;29;20104;-67
2023/10/10 14:14:46;;;;;;;0.32;0.10;;;;;;;3.52;65.53;99481.19;4949415;28;20062;-66
2023/10/10 14:17:13;;;;;;;0.10;0.10;;;;;;;3.46;65.64;99484.84;4948130;28;20045;-67
2023/10/10 14:19:39;;;;;;;0.10;0.10;;;;;;;3.42;65.65;99483.66;4945774;28;20053;-66
2023/10/10 14:22:10;;;;;;;0.10;0.10;;;;;;;3.32;65.14;99486.16;4945551;28;20146;-67
2023/10/10 14:24:39;;;;;;;0.10;0.10;;;;;;;3.28;65.65;99493.06;4943347;29;20043;-67
2023/10/10 14:27:05;;;;;;;0.10;0.10;;;;;;;3.25;65.43;99502.47;4948196;28;20047;-66
2023/10/10 14:29:41;;;;;;;0.10;0.10;;;;;;;3.16;65.71;99506.56;4946765;28;20412;-66
2023/10/10 14:32:10;;;;;;;0.10;0.10;;;;;;;3.16;65.54;99504.69;4959968;28;20546;-66
2023/10/10 14:34:38;;;;;;;0.10;0.10;;;;;;;3.19;65.78;99512.31;4945605;28;20099;-66
2023/10/10 14:37:04;;;;;;;0.10;0.10;;;;;;;3.19;65.80;99515.03;4946925;29;20667;-66
2023/10/10 14:39:44;;;;;;;0.10;0.10;;;;;;;3.13;65.66;99518.69;4942592;28;20129;-66
2023/10/10 14:42:13;;;;;;;0.10;0.10;;;;;;;3.07;65.87;99528.53;4943654;29;20137;-66
2023/10/10 14:44:40;;;;;;;0.10;0.10;;;;;;;3.04;66.28;99539.78;4946581;28;20055;-66
2023/10/10 14:47:09;;;;;;;0.10;0.10;;;;;;;3.12;66.28;99544.03;4959479;28;20161;-66
2023/10/10 14:49:38;;;;;;;0.10;0.10;;;;;;;3.04;66.17;99544.38;4944685;28;20451;-67
2023/10/10 14:52:06;;;;;;;0.10;0.10;;;;;;;2.97;66.52;99536.38;4942846;29;20086;-66